sensor_id;sensor_type;location;lat;lon;timestamp;P1;durP1;ratioP1;P2;durP2;ratioP2
10246;SDS011;5168;47.854;7.944;2023-05-02T00:01:39;4.27;;;3.90;;
10246;SDS011;5168;47.854;7.944;2023-05-02T00:04:05;4.30;;;3.93;;
10246;SDS011;5168;47.854;7.944;2023-05-02T00:06:31;4.70;;;4.30;;
10246;SDS011;5168;47.854;7.944;2023-05-02T00:08:56;4.93;;;4.17;;
10246;SDS011;5168;47.854;7.944;2023-05-02T00:11:22;4.30;;;3.90;;
10246;SDS011;5168;47.854;7.944;2023-05-02T00:13:48;4.80;;;4.40;;
10246;SDS011;5168;47.854;7.944;2023-05-02T00:16:13;4.10;;;3.80;;
10246;SDS011;5168;47.854;7.944;2023-05-02T00:18:39;4.40;;;4.00;;
10246;SDS011;5168;47.854;7.944;2023-05-02T00:21:05;3.83;;;3.53;;
10246;SDS011;5168;47.854;7.944;2023-05-02T00:23:32;3.83;;;3.53;;
10246;SDS011;5168;47.854;7.944;2023-05-02T00:25:58;5.00;;;4.50;;
10246;SDS011;5168;47.854;7.944;2023-05-02T00:28:23;4.03;;;3.73;;
10246;SDS011;5168;47.854;7.944;2023-05-02T00:30:51;4.50;;;4.10;;
10246;SDS011;5168;47.854;7.944;2023-05-02T00:33:17;4.10;;;3.80;;
10246;SDS011;5168;47.854;7.944;2023-05-02T00:35:43;4.83;;;4.43;;
10246;SDS011;5168;47.854;7.944;2023-05-02T00:38:08;3.83;;;3.53;;
10246;SDS011;5168;47.854;7.944;2023-05-02T00:40:43;4.50;;;4.10;;
10246;SDS011;5168;47.854;7.944;2023-05-02T00:43:10;4.47;;;4.00;;
10246;SDS011;5168;47.854;7.944;2023-05-02T00:45:37;4.50;;;4.20;;
10246;SDS011;5168;47.854;7.944;2023-05-02T00:48:05;4.20;;;3.80;;
10246;SDS011;5168;47.854;7.944;2023-05-02T00:50:32;4.30;;;3.90;;
10246;SDS011;5168;47.854;7.944;2023-05-02T00:53:01;5.10;;;4.60;;
10246;SDS011;5168;47.854;7.944;2023-05-02T00:55:27;4.70;;;4.30;;
10246;SDS011;5168;47.854;7.944;2023-05-02T00:57:53;5.73;;;5.13;;
10246;SDS011;5168;47.854;7.944;2023-05-02T01:00:19;7.17;;;5.87;;
10246;SDS011;5168;47.854;7.944;2023-05-02T01:02:50;6.17;;;5.57;;
10246;SDS011;5168;47.854;7.944;2023-05-02T01:05:32;5.30;;;4.80;;
10246;SDS011;5168;47.854;7.944;2023-05-02T01:08:18;7.73;;;5.97;;
10246;SDS011;5168;47.854;7.944;2023-05-02T01:11:02;5.40;;;4.90;;
10246;SDS011;5168;47.854;7.944;2023-05-02T01:13:39;5.80;;;5.10;;
10246;SDS011;5168;47.854;7.944;2023-05-02T01:16:07;5.60;;;5.00;;
10246;SDS011;5168;47.854;7.944;2023-05-02T01:18:36;7.37;;;5.83;;
10246;SDS011;5168;47.854;7.944;2023-05-02T01:21:06;7.13;;;5.97;;
10246;SDS011;5168;47.854;7.944;2023-05-02T01:23:38;5.27;;;4.77;;
10246;SDS011;5168;47.854;7.944;2023-05-02T01:29:21;4.70;;;4.30;;
10246;SDS011;5168;47.854;7.944;2023-05-02T01:31:48;5.63;;;5.13;;
10246;SDS011;5168;47.854;7.944;2023-05-02T01:34:14;6.10;;;5.03;;
10246;SDS011;5168;47.854;7.944;2023-05-02T01:36:47;5.33;;;4.83;;
10246;SDS011;5168;47.854;7.944;2023-05-02T01:39:17;8.07;;;6.07;;
10246;SDS011;5168;47.854;7.944;2023-05-02T01:41:45;6.03;;;5.43;;
10246;SDS011;5168;47.854;7.944;2023-05-02T01:44:17;6.30;;;5.80;;
10246;SDS011;5168;47.854;7.944;2023-05-02T01:46:45;4.83;;;4.13;;
10246;SDS011;5168;47.854;7.944;2023-05-02T01:49:12;5.80;;;5.30;;
10246;SDS011;5168;47.854;7.944;2023-05-02T01:51:45;4.97;;;4.50;;
10246;SDS011;5168;47.854;7.944;2023-05-02T01:54:14;4.87;;;4.40;;
10246;SDS011;5168;47.854;7.944;2023-05-02T01:56:41;5.97;;;4.87;;
10246;SDS011;5168;47.854;7.944;2023-05-02T01:59:08;5.43;;;4.93;;
10246;SDS011;5168;47.854;7.944;2023-05-02T02:01:37;5.57;;;5.03;;
10246;SDS011;5168;47.854;7.944;2023-05-02T02:04:08;7.80;;;7.10;;
10246;SDS011;5168;47.854;7.944;2023-05-02T02:06:34;4.93;;;4.53;;
10246;SDS011;5168;47.854;7.944;2023-05-02T02:09:00;5.80;;;5.27;;
10246;SDS011;5168;47.854;7.944;2023-05-02T02:11:34;6.50;;;5.83;;
10246;SDS011;5168;47.854;7.944;2023-05-02T02:14:06;9.03;;;8.17;;
10246;SDS011;5168;47.854;7.944;2023-05-02T02:16:38;8.77;;;7.87;;
10246;SDS011;5168;47.854;7.944;2023-05-02T02:19:09;14.03;;;8.17;;
10246;SDS011;5168;47.854;7.944;2023-05-02T02:21:36;10.27;;;9.30;;
10246;SDS011;5168;47.854;7.944;2023-05-02T02:24:05;11.13;;;9.77;;
10246;SDS011;5168;47.854;7.944;2023-05-02T02:26:31;7.60;;;6.83;;
10246;SDS011;5168;47.854;7.944;2023-05-02T02:28:58;8.67;;;7.53;;
10246;SDS011;5168;47.854;7.944;2023-05-02T02:31:34;8.00;;;7.20;;
10246;SDS011;5168;47.854;7.944;2023-05-02T02:34:03;7.90;;;7.17;;
10246;SDS011;5168;47.854;7.944;2023-05-02T02:39:11;9.03;;;8.13;;
10246;SDS011;5168;47.854;7.944;2023-05-02T02:47:26;9.33;;;8.50;;
10246;SDS011;5168;47.854;7.944;2023-05-02T02:53:12;9.43;;;7.37;;
10246;SDS011;5168;47.854;7.944;2023-05-02T02:56:02;8.97;;;8.03;;
10246;SDS011;5168;47.854;7.944;2023-05-02T02:58:35;7.40;;;6.70;;
10246;SDS011;5168;47.854;7.944;2023-05-02T03:01:14;10.40;;;9.40;;
10246;SDS011;5168;47.854;7.944;2023-05-02T03:03:45;7.47;;;6.60;;
10246;SDS011;5168;47.854;7.944;2023-05-02T03:06:13;7.63;;;6.80;;
10246;SDS011;5168;47.854;7.944;2023-05-02T03:08:40;9.00;;;8.10;;
10246;SDS011;5168;47.854;7.944;2023-05-02T03:11:07;6.87;;;6.20;;
10246;SDS011;5168;47.854;7.944;2023-05-02T03:13:33;6.70;;;6.10;;
10246;SDS011;5168;47.854;7.944;2023-05-02T03:16:05;7.10;;;5.40;;
10246;SDS011;5168;47.854;7.944;2023-05-02T03:18:37;5.63;;;5.13;;
10246;SDS011;5168;47.854;7.944;2023-05-02T03:21:04;5.57;;;5.07;;
10246;SDS011;5168;47.854;7.944;2023-05-02T03:23:30;6.60;;;6.00;;
10246;SDS011;5168;47.854;7.944;2023-05-02T03:25:56;7.37;;;6.63;;
10246;SDS011;5168;47.854;7.944;2023-05-02T03:28:22;8.50;;;7.60;;
10246;SDS011;5168;47.854;7.944;2023-05-02T03:30:48;9.03;;;8.13;;
10246;SDS011;5168;47.854;7.944;2023-05-02T03:33:15;8.27;;;7.47;;
10246;SDS011;5168;47.854;7.944;2023-05-02T03:35:40;8.27;;;7.47;;
10246;SDS011;5168;47.854;7.944;2023-05-02T03:38:06;7.03;;;6.33;;
10246;SDS011;5168;47.854;7.944;2023-05-02T03:40:33;8.50;;;7.60;;
10246;SDS011;5168;47.854;7.944;2023-05-02T03:42:59;8.30;;;7.50;;
10246;SDS011;5168;47.854;7.944;2023-05-02T03:45:24;6.83;;;6.10;;
10246;SDS011;5168;47.854;7.944;2023-05-02T03:47:53;8.67;;;7.87;;
10246;SDS011;5168;47.854;7.944;2023-05-02T03:50:18;9.80;;;8.20;;
10246;SDS011;5168;47.854;7.944;2023-05-02T03:52:44;7.73;;;6.80;;
10246;SDS011;5168;47.854;7.944;2023-05-02T03:55:10;8.93;;;8.03;;
10246;SDS011;5168;47.854;7.944;2023-05-02T03:57:36;10.23;;;8.83;;
10246;SDS011;5168;47.854;7.944;2023-05-02T04:00:02;7.97;;;7.17;;
10246;SDS011;5168;47.854;7.944;2023-05-02T04:02:28;10.00;;;9.00;;
10246;SDS011;5168;47.854;7.944;2023-05-02T04:04:54;8.83;;;7.37;;
10246;SDS011;5168;47.854;7.944;2023-05-02T04:07:19;8.83;;;7.97;;
10246;SDS011;5168;47.854;7.944;2023-05-02T04:09:45;8.83;;;7.93;;
10246;SDS011;5168;47.854;7.944;2023-05-02T04:12:13;8.50;;;7.70;;
10246;SDS011;5168;47.854;7.944;2023-05-02T04:14:39;7.83;;;6.97;;
10246;SDS011;5168;47.854;7.944;2023-05-02T04:17:05;10.27;;;8.80;;
10246;SDS011;5168;47.854;7.944;2023-05-02T04:19:30;9.90;;;8.80;;
10246;SDS011;5168;47.854;7.944;2023-05-02T04:21:56;9.67;;;8.63;;
10246;SDS011;5168;47.854;7.944;2023-05-02T04:24:23;10.00;;;9.00;;
10246;SDS011;5168;47.854;7.944;2023-05-02T04:26:49;9.97;;;8.97;;
10246;SDS011;5168;47.854;7.944;2023-05-02T04:29:15;10.80;;;9.37;;
10246;SDS011;5168;47.854;7.944;2023-05-02T04:31:41;8.83;;;7.93;;
10246;SDS011;5168;47.854;7.944;2023-05-02T04:34:07;8.90;;;8.00;;
10246;SDS011;5168;47.854;7.944;2023-05-02T04:36:33;8.43;;;7.57;;
10246;SDS011;5168;47.854;7.944;2023-05-02T04:38:58;10.80;;;9.70;;
10246;SDS011;5168;47.854;7.944;2023-05-02T04:41:24;12.93;;;10.97;;
10246;SDS011;5168;47.854;7.944;2023-05-02T04:43:49;9.90;;;8.90;;
10246;SDS011;5168;47.854;7.944;2023-05-02T04:46:15;15.63;;;10.70;;
10246;SDS011;5168;47.854;7.944;2023-05-02T04:48:43;11.33;;;10.13;;
10246;SDS011;5168;47.854;7.944;2023-05-02T04:51:09;11.13;;;9.60;;
10246;SDS011;5168;47.854;7.944;2023-05-02T04:53:35;11.43;;;9.20;;
10246;SDS011;5168;47.854;7.944;2023-05-02T04:56:01;12.87;;;11.47;;
10246;SDS011;5168;47.854;7.944;2023-05-02T04:58:26;10.03;;;8.40;;
10246;SDS011;5168;47.854;7.944;2023-05-02T05:00:52;10.70;;;8.87;;
10246;SDS011;5168;47.854;7.944;2023-05-02T05:03:18;13.17;;;11.20;;
10246;SDS011;5168;47.854;7.944;2023-05-02T05:05:44;10.37;;;9.33;;
10246;SDS011;5168;47.854;7.944;2023-05-02T05:08:10;10.60;;;9.50;;
10246;SDS011;5168;47.854;7.944;2023-05-02T05:10:36;8.23;;;7.23;;
10246;SDS011;5168;47.854;7.944;2023-05-02T05:13:01;7.80;;;6.97;;
10246;SDS011;5168;47.854;7.944;2023-05-02T05:15:31;8.83;;;8.00;;
10246;SDS011;5168;47.854;7.944;2023-05-02T05:17:57;8.97;;;8.07;;
10246;SDS011;5168;47.854;7.944;2023-05-02T05:20:22;12.03;;;10.73;;
10246;SDS011;5168;47.854;7.944;2023-05-02T05:22:48;9.73;;;8.67;;
10246;SDS011;5168;47.854;7.944;2023-05-02T05:25:14;9.20;;;8.30;;
10246;SDS011;5168;47.854;7.944;2023-05-02T05:27:40;12.50;;;9.63;;
10246;SDS011;5168;47.854;7.944;2023-05-02T05:30:06;9.00;;;8.10;;
10246;SDS011;5168;47.854;7.944;2023-05-02T05:32:33;8.57;;;7.67;;
10246;SDS011;5168;47.854;7.944;2023-05-02T05:34:59;9.37;;;7.67;;
10246;SDS011;5168;47.854;7.944;2023-05-02T05:37:24;9.40;;;7.43;;
10246;SDS011;5168;47.854;7.944;2023-05-02T05:39:50;8.60;;;7.60;;
10246;SDS011;5168;47.854;7.944;2023-05-02T05:42:16;6.43;;;5.83;;
10246;SDS011;5168;47.854;7.944;2023-05-02T05:44:42;5.73;;;5.23;;
10246;SDS011;5168;47.854;7.944;2023-05-02T05:47:07;6.53;;;5.83;;
10246;SDS011;5168;47.854;7.944;2023-05-02T05:49:33;8.30;;;7.07;;
10246;SDS011;5168;47.854;7.944;2023-05-02T05:52:00;9.97;;;8.97;;
10246;SDS011;5168;47.854;7.944;2023-05-02T05:54:26;9.23;;;8.33;;
10246;SDS011;5168;47.854;7.944;2023-05-02T05:56:51;7.77;;;6.97;;
10246;SDS011;5168;47.854;7.944;2023-05-02T05:59:17;8.50;;;7.63;;
10246;SDS011;5168;47.854;7.944;2023-05-02T06:01:43;7.27;;;6.57;;
10246;SDS011;5168;47.854;7.944;2023-05-02T06:04:09;6.87;;;6.20;;
10246;SDS011;5168;47.854;7.944;2023-05-02T06:06:35;7.83;;;7.03;;
10246;SDS011;5168;47.854;7.944;2023-05-02T06:09:01;6.90;;;6.03;;
10246;SDS011;5168;47.854;7.944;2023-05-02T06:11:28;7.47;;;6.60;;
10246;SDS011;5168;47.854;7.944;2023-05-02T06:13:53;12.70;;;8.87;;
10246;SDS011;5168;47.854;7.944;2023-05-02T06:16:20;11.00;;;9.87;;
10246;SDS011;5168;47.854;7.944;2023-05-02T06:18:46;8.40;;;7.50;;
10246;SDS011;5168;47.854;7.944;2023-05-02T06:21:14;9.33;;;8.13;;
10246;SDS011;5168;47.854;7.944;2023-05-02T06:23:40;10.80;;;9.07;;
10246;SDS011;5168;47.854;7.944;2023-05-02T06:26:05;9.13;;;8.23;;
10246;SDS011;5168;47.854;7.944;2023-05-02T06:28:31;7.37;;;6.60;;
10246;SDS011;5168;47.854;7.944;2023-05-02T06:33:22;11.97;;;9.37;;
10246;SDS011;5168;47.854;7.944;2023-05-02T06:35:51;9.33;;;8.33;;
10246;SDS011;5168;47.854;7.944;2023-05-02T06:38:17;9.20;;;8.23;;
10246;SDS011;5168;47.854;7.944;2023-05-02T06:40:43;9.27;;;8.40;;
10246;SDS011;5168;47.854;7.944;2023-05-02T06:43:09;10.80;;;8.67;;
10246;SDS011;5168;47.854;7.944;2023-05-02T06:45:35;8.43;;;7.63;;
10246;SDS011;5168;47.854;7.944;2023-05-02T06:48:01;10.93;;;9.10;;
10246;SDS011;5168;47.854;7.944;2023-05-02T06:50:27;8.03;;;7.03;;
10246;SDS011;5168;47.854;7.944;2023-05-02T06:52:54;8.90;;;8.00;;
10246;SDS011;5168;47.854;7.944;2023-05-02T06:55:20;9.07;;;8.17;;
10246;SDS011;5168;47.854;7.944;2023-05-02T06:57:47;8.57;;;7.77;;
10246;SDS011;5168;47.854;7.944;2023-05-02T07:00:14;12.03;;;8.87;;
10246;SDS011;5168;47.854;7.944;2023-05-02T07:02:41;10.70;;;7.20;;
10246;SDS011;5168;47.854;7.944;2023-05-02T07:05:06;8.00;;;6.50;;
10246;SDS011;5168;47.854;7.944;2023-05-02T07:07:32;8.93;;;7.13;;
10246;SDS011;5168;47.854;7.944;2023-05-02T07:09:58;9.40;;;6.30;;
10246;SDS011;5168;47.854;7.944;2023-05-02T07:12:24;8.47;;;7.57;;
10246;SDS011;5168;47.854;7.944;2023-05-02T07:14:50;10.07;;;8.80;;
10246;SDS011;5168;47.854;7.944;2023-05-02T07:17:16;9.30;;;8.40;;
10246;SDS011;5168;47.854;7.944;2023-05-02T07:19:42;8.53;;;7.43;;
10246;SDS011;5168;47.854;7.944;2023-05-02T07:22:08;7.90;;;7.07;;
10246;SDS011;5168;47.854;7.944;2023-05-02T07:24:34;8.10;;;7.33;;
10246;SDS011;5168;47.854;7.944;2023-05-02T07:27:01;6.37;;;5.77;;
10246;SDS011;5168;47.854;7.944;2023-05-02T07:29:27;6.30;;;5.70;;
10246;SDS011;5168;47.854;7.944;2023-05-02T07:31:53;7.30;;;6.60;;
10246;SDS011;5168;47.854;7.944;2023-05-02T07:34:19;9.60;;;6.90;;
10246;SDS011;5168;47.854;7.944;2023-05-02T07:36:44;8.00;;;6.60;;
10246;SDS011;5168;47.854;7.944;2023-05-02T07:39:10;7.87;;;6.63;;
10246;SDS011;5168;47.854;7.944;2023-05-02T07:41:36;6.10;;;5.50;;
10246;SDS011;5168;47.854;7.944;2023-05-02T07:44:01;6.40;;;5.80;;
10246;SDS011;5168;47.854;7.944;2023-05-02T07:46:27;6.97;;;6.03;;
10246;SDS011;5168;47.854;7.944;2023-05-02T07:48:53;6.97;;;5.57;;
10246;SDS011;5168;47.854;7.944;2023-05-02T07:51:19;8.07;;;6.67;;
10246;SDS011;5168;47.854;7.944;2023-05-02T07:53:48;6.50;;;5.90;;
10246;SDS011;5168;47.854;7.944;2023-05-02T07:56:14;5.87;;;5.27;;
10246;SDS011;5168;47.854;7.944;2023-05-02T07:58:40;7.20;;;6.47;;
10246;SDS011;5168;47.854;7.944;2023-05-02T08:01:06;5.50;;;5.00;;
10246;SDS011;5168;47.854;7.944;2023-05-02T08:03:32;6.10;;;5.50;;
10246;SDS011;5168;47.854;7.944;2023-05-02T08:05:58;7.13;;;6.40;;
10246;SDS011;5168;47.854;7.944;2023-05-02T08:08:25;5.20;;;4.33;;
10246;SDS011;5168;47.854;7.944;2023-05-02T08:10:52;4.77;;;4.30;;
10246;SDS011;5168;47.854;7.944;2023-05-02T08:13:17;7.93;;;5.50;;
10246;SDS011;5168;47.854;7.944;2023-05-02T08:15:43;4.33;;;3.90;;
10246;SDS011;5168;47.854;7.944;2023-05-02T08:18:09;6.87;;;4.93;;
10246;SDS011;5168;47.854;7.944;2023-05-02T08:20:35;6.97;;;6.27;;
10246;SDS011;5168;47.854;7.944;2023-05-02T08:23:01;6.93;;;5.60;;
10246;SDS011;5168;47.854;7.944;2023-05-02T08:25:26;5.37;;;4.87;;
10246;SDS011;5168;47.854;7.944;2023-05-02T08:27:53;5.87;;;5.20;;
10246;SDS011;5168;47.854;7.944;2023-05-02T08:30:19;5.80;;;5.30;;
10246;SDS011;5168;47.854;7.944;2023-05-02T08:32:45;5.43;;;4.80;;
10246;SDS011;5168;47.854;7.944;2023-05-02T08:35:11;6.10;;;5.20;;
10246;SDS011;5168;47.854;7.944;2023-05-02T08:37:38;5.03;;;4.53;;
10246;SDS011;5168;47.854;7.944;2023-05-02T08:40:03;5.47;;;4.97;;
10246;SDS011;5168;47.854;7.944;2023-05-02T08:42:29;6.03;;;5.43;;
10246;SDS011;5168;47.854;7.944;2023-05-02T08:44:57;6.03;;;4.60;;
10246;SDS011;5168;47.854;7.944;2023-05-02T08:47:22;6.83;;;5.00;;
10246;SDS011;5168;47.854;7.944;2023-05-02T08:49:50;6.13;;;5.50;;
10246;SDS011;5168;47.854;7.944;2023-05-02T08:52:18;5.30;;;4.73;;
10246;SDS011;5168;47.854;7.944;2023-05-02T08:54:44;5.90;;;4.70;;
10246;SDS011;5168;47.854;7.944;2023-05-02T08:57:10;6.40;;;5.70;;
10246;SDS011;5168;47.854;7.944;2023-05-02T08:59:36;5.40;;;4.90;;
10246;SDS011;5168;47.854;7.944;2023-05-02T09:02:11;7.73;;;5.40;;
10246;SDS011;5168;47.854;7.944;2023-05-02T09:04:56;4.87;;;4.47;;
10246;SDS011;5168;47.854;7.944;2023-05-02T09:07:28;4.37;;;3.97;;
10246;SDS011;5168;47.854;7.944;2023-05-02T09:09:54;5.00;;;4.53;;
10246;SDS011;5168;47.854;7.944;2023-05-02T09:12:24;4.80;;;4.13;;
10246;SDS011;5168;47.854;7.944;2023-05-02T09:15:07;4.77;;;4.27;;
10246;SDS011;5168;47.854;7.944;2023-05-02T09:17:40;5.10;;;4.47;;
10246;SDS011;5168;47.854;7.944;2023-05-02T09:20:10;5.50;;;5.00;;
10246;SDS011;5168;47.854;7.944;2023-05-02T09:22:37;6.33;;;5.73;;
10246;SDS011;5168;47.854;7.944;2023-05-02T09:25:04;5.27;;;4.53;;
10246;SDS011;5168;47.854;7.944;2023-05-02T09:27:45;5.07;;;4.57;;
10246;SDS011;5168;47.854;7.944;2023-05-02T09:30:19;5.90;;;4.47;;
10246;SDS011;5168;47.854;7.944;2023-05-02T09:32:46;5.80;;;4.70;;
10246;SDS011;5168;47.854;7.944;2023-05-02T09:35:13;5.70;;;5.10;;
10246;SDS011;5168;47.854;7.944;2023-05-02T09:37:47;5.40;;;4.90;;
10246;SDS011;5168;47.854;7.944;2023-05-02T09:40:17;5.30;;;3.87;;
10246;SDS011;5168;47.854;7.944;2023-05-02T09:42:44;5.67;;;5.17;;
10246;SDS011;5168;47.854;7.944;2023-05-02T09:45:18;4.50;;;4.07;;
10246;SDS011;5168;47.854;7.944;2023-05-02T09:47:44;4.07;;;3.77;;
10246;SDS011;5168;47.854;7.944;2023-05-02T09:50:11;4.80;;;4.40;;
10246;SDS011;5168;47.854;7.944;2023-05-02T09:52:37;5.00;;;4.50;;
10246;SDS011;5168;47.854;7.944;2023-05-02T09:55:17;4.87;;;4.47;;
10246;SDS011;5168;47.854;7.944;2023-05-02T09:57:46;4.57;;;4.17;;
10246;SDS011;5168;47.854;7.944;2023-05-02T10:00:13;7.57;;;5.40;;
10246;SDS011;5168;47.854;7.944;2023-05-02T10:02:43;4.63;;;4.23;;
10246;SDS011;5168;47.854;7.944;2023-05-02T10:05:09;5.73;;;5.10;;
10246;SDS011;5168;47.854;7.944;2023-05-02T10:07:37;4.10;;;3.70;;
10246;SDS011;5168;47.854;7.944;2023-05-02T10:10:03;4.80;;;4.30;;
10246;SDS011;5168;47.854;7.944;2023-05-02T10:12:30;4.40;;;4.00;;
10246;SDS011;5168;47.854;7.944;2023-05-02T10:14:59;4.57;;;4.17;;
10246;SDS011;5168;47.854;7.944;2023-05-02T10:17:29;5.17;;;4.07;;
10246;SDS011;5168;47.854;7.944;2023-05-02T10:19:56;4.47;;;3.90;;
10246;SDS011;5168;47.854;7.944;2023-05-02T10:22:27;4.03;;;3.63;;
10246;SDS011;5168;47.854;7.944;2023-05-02T10:24:55;5.73;;;5.20;;
10246;SDS011;5168;47.854;7.944;2023-05-02T10:27:23;5.03;;;4.53;;
10246;SDS011;5168;47.854;7.944;2023-05-02T10:29:49;4.17;;;3.87;;
10246;SDS011;5168;47.854;7.944;2023-05-02T10:32:16;4.33;;;3.90;;
10246;SDS011;5168;47.854;7.944;2023-05-02T10:34:42;5.03;;;4.53;;
10246;SDS011;5168;47.854;7.944;2023-05-02T10:37:08;5.53;;;3.93;;
10246;SDS011;5168;47.854;7.944;2023-05-02T10:39:33;5.30;;;4.80;;
10246;SDS011;5168;47.854;7.944;2023-05-02T10:42:00;6.77;;;5.00;;
10246;SDS011;5168;47.854;7.944;2023-05-02T10:44:36;5.07;;;4.40;;
10246;SDS011;5168;47.854;7.944;2023-05-02T10:47:22;4.33;;;4.03;;
10246;SDS011;5168;47.854;7.944;2023-05-02T10:49:49;3.70;;;3.40;;
10246;SDS011;5168;47.854;7.944;2023-05-02T10:55:14;3.70;;;3.30;;
10246;SDS011;5168;47.854;7.944;2023-05-02T11:00:27;4.43;;;3.63;;
10246;SDS011;5168;47.854;7.944;2023-05-02T11:02:54;3.40;;;3.10;;
10246;SDS011;5168;47.854;7.944;2023-05-02T11:05:23;3.10;;;2.80;;
10246;SDS011;5168;47.854;7.944;2023-05-02T11:07:49;3.80;;;3.50;;
10246;SDS011;5168;47.854;7.944;2023-05-02T11:10:44;5.03;;;4.53;;
10246;SDS011;5168;47.854;7.944;2023-05-02T11:13:10;4.93;;;4.43;;
10246;SDS011;5168;47.854;7.944;2023-05-02T11:18:04;4.83;;;4.37;;
10246;SDS011;5168;47.854;7.944;2023-05-02T11:20:35;4.33;;;3.93;;
10246;SDS011;5168;47.854;7.944;2023-05-02T11:23:24;4.20;;;3.80;;
10246;SDS011;5168;47.854;7.944;2023-05-02T11:25:50;4.30;;;3.73;;
10246;SDS011;5168;47.854;7.944;2023-05-02T11:31:02;4.53;;;3.50;;
10246;SDS011;5168;47.854;7.944;2023-05-02T11:33:29;4.50;;;4.10;;
10246;SDS011;5168;47.854;7.944;2023-05-02T11:35:54;4.30;;;3.90;;
10246;SDS011;5168;47.854;7.944;2023-05-02T11:38:23;3.50;;;3.20;;
10246;SDS011;5168;47.854;7.944;2023-05-02T11:40:54;3.30;;;3.00;;
10246;SDS011;5168;47.854;7.944;2023-05-02T11:43:21;3.57;;;3.27;;
10246;SDS011;5168;47.854;7.944;2023-05-02T11:45:49;4.38;;;3.97;;
10246;SDS011;5168;47.854;7.944;2023-05-02T11:48:16;3.53;;;3.22;;
10246;SDS011;5168;47.854;7.944;2023-05-02T11:50:46;3.70;;;3.40;;
10246;SDS011;5168;47.854;7.944;2023-05-02T11:53:15;3.53;;;3.22;;
10246;SDS011;5168;47.854;7.944;2023-05-02T11:55:43;3.05;;;2.75;;
10246;SDS011;5168;47.854;7.944;2023-05-02T11:58:13;3.50;;;3.10;;
10246;SDS011;5168;47.854;7.944;2023-05-02T12:00:41;4.88;;;2.75;;
10246;SDS011;5168;47.854;7.944;2023-05-02T12:03:17;3.72;;;3.25;;
10246;SDS011;5168;47.854;7.944;2023-05-02T12:05:51;3.30;;;3.00;;
10246;SDS011;5168;47.854;7.944;2023-05-02T12:08:17;3.63;;;3.20;;
10246;SDS011;5168;47.854;7.944;2023-05-02T12:10:48;3.65;;;3.35;;
10246;SDS011;5168;47.854;7.944;2023-05-02T12:13:15;7.32;;;4.28;;
10246;SDS011;5168;47.854;7.944;2023-05-02T12:15:41;5.32;;;3.70;;
10246;SDS011;5168;47.854;7.944;2023-05-02T12:18:07;4.95;;;3.95;;
10246;SDS011;5168;47.854;7.944;2023-05-02T12:20:33;5.13;;;4.63;;
10246;SDS011;5168;47.854;7.944;2023-05-02T12:22:59;5.68;;;3.83;;
10246;SDS011;5168;47.854;7.944;2023-05-02T12:25:25;4.50;;;3.13;;
10246;SDS011;5168;47.854;7.944;2023-05-02T12:28:00;3.20;;;2.83;;
10246;SDS011;5168;47.854;7.944;2023-05-02T12:30:29;3.30;;;3.00;;
10246;SDS011;5168;47.854;7.944;2023-05-02T12:32:56;3.20;;;2.90;;
10246;SDS011;5168;47.854;7.944;2023-05-02T12:35:22;3.10;;;2.80;;
10246;SDS011;5168;47.854;7.944;2023-05-02T12:37:48;5.40;;;3.45;;
10246;SDS011;5168;47.854;7.944;2023-05-02T12:40:14;3.08;;;2.35;;
10246;SDS011;5168;47.854;7.944;2023-05-02T12:42:41;3.20;;;2.90;;
10246;SDS011;5168;47.854;7.944;2023-05-02T12:45:16;4.38;;;4.05;;
10246;SDS011;5168;47.854;7.944;2023-05-02T12:47:45;3.53;;;3.00;;
10246;SDS011;5168;47.854;7.944;2023-05-02T12:50:10;3.55;;;3.03;;
10246;SDS011;5168;47.854;7.944;2023-05-02T12:52:48;3.03;;;2.72;;
10246;SDS011;5168;47.854;7.944;2023-05-02T12:55:22;3.13;;;2.83;;
10246;SDS011;5168;47.854;7.944;2023-05-02T12:57:49;4.03;;;3.63;;
10246;SDS011;5168;47.854;7.944;2023-05-02T13:00:15;3.67;;;3.30;;
10246;SDS011;5168;47.854;7.944;2023-05-02T13:02:43;4.60;;;3.90;;
10246;SDS011;5168;47.854;7.944;2023-05-02T13:05:15;5.32;;;4.82;;
10246;SDS011;5168;47.854;7.944;2023-05-02T13:07:41;5.20;;;4.70;;
10246;SDS011;5168;47.854;7.944;2023-05-02T13:10:07;4.53;;;3.97;;
10246;SDS011;5168;47.854;7.944;2023-05-02T13:12:33;3.90;;;3.60;;
10246;SDS011;5168;47.854;7.944;2023-05-02T13:15:05;5.00;;;3.65;;
10246;SDS011;5168;47.854;7.944;2023-05-02T13:17:32;4.70;;;3.23;;
10246;SDS011;5168;47.854;7.944;2023-05-02T13:19:58;3.30;;;3.00;;
10246;SDS011;5168;47.854;7.944;2023-05-02T13:22:24;4.28;;;3.67;;
10246;SDS011;5168;47.854;7.944;2023-05-02T13:24:49;4.07;;;3.47;;
10246;SDS011;5168;47.854;7.944;2023-05-02T13:27:15;6.57;;;4.40;;
10246;SDS011;5168;47.854;7.944;2023-05-02T13:29:42;4.57;;;3.63;;
10246;SDS011;5168;47.854;7.944;2023-05-02T13:32:08;3.92;;;3.35;;
10246;SDS011;5168;47.854;7.944;2023-05-02T13:34:34;5.18;;;4.55;;
10246;SDS011;5168;47.854;7.944;2023-05-02T13:36:59;8.70;;;3.20;;
10246;SDS011;5168;47.854;7.944;2023-05-02T13:39:25;3.97;;;2.97;;
10246;SDS011;5168;47.854;7.944;2023-05-02T13:41:50;3.60;;;3.30;;
10246;SDS011;5168;47.854;7.944;2023-05-02T13:44:16;4.40;;;4.00;;
10246;SDS011;5168;47.854;7.944;2023-05-02T13:46:41;3.77;;;3.47;;
10246;SDS011;5168;47.854;7.944;2023-05-02T13:49:07;5.20;;;4.70;;
10246;SDS011;5168;47.854;7.944;2023-05-02T13:51:33;3.33;;;3.03;;
10246;SDS011;5168;47.854;7.944;2023-05-02T13:53:59;4.43;;;3.60;;
10246;SDS011;5168;47.854;7.944;2023-05-02T13:56:25;3.50;;;3.20;;
10246;SDS011;5168;47.854;7.944;2023-05-02T13:58:51;4.10;;;3.70;;
10246;SDS011;5168;47.854;7.944;2023-05-02T14:01:16;4.73;;;3.10;;
10246;SDS011;5168;47.854;7.944;2023-05-02T14:03:42;4.37;;;3.60;;
10246;SDS011;5168;47.854;7.944;2023-05-02T14:06:08;4.33;;;3.90;;
10246;SDS011;5168;47.854;7.944;2023-05-02T14:08:33;4.10;;;3.70;;
10246;SDS011;5168;47.854;7.944;2023-05-02T14:10:59;5.77;;;4.67;;
10246;SDS011;5168;47.854;7.944;2023-05-02T14:13:24;4.70;;;3.60;;
10246;SDS011;5168;47.854;7.944;2023-05-02T14:15:50;4.97;;;4.57;;
10246;SDS011;5168;47.854;7.944;2023-05-02T14:18:16;4.87;;;3.97;;
10246;SDS011;5168;47.854;7.944;2023-05-02T14:20:42;5.70;;;4.30;;
10246;SDS011;5168;47.854;7.944;2023-05-02T14:23:08;5.10;;;3.90;;
10246;SDS011;5168;47.854;7.944;2023-05-02T14:25:34;4.73;;;3.90;;
10246;SDS011;5168;47.854;7.944;2023-05-02T14:28:00;5.93;;;4.00;;
10246;SDS011;5168;47.854;7.944;2023-05-02T14:30:26;4.50;;;4.03;;
10246;SDS011;5168;47.854;7.944;2023-05-02T14:32:52;5.00;;;4.50;;
10246;SDS011;5168;47.854;7.944;2023-05-02T14:35:18;7.53;;;4.40;;
10246;SDS011;5168;47.854;7.944;2023-05-02T14:37:44;5.07;;;4.53;;
10246;SDS011;5168;47.854;7.944;2023-05-02T14:40:11;5.17;;;4.30;;
10246;SDS011;5168;47.854;7.944;2023-05-02T14:42:37;3.90;;;3.27;;
10246;SDS011;5168;47.854;7.944;2023-05-02T14:45:04;4.20;;;3.80;;
10246;SDS011;5168;47.854;7.944;2023-05-02T14:47:30;5.03;;;4.53;;
10246;SDS011;5168;47.854;7.944;2023-05-02T14:49:56;6.90;;;4.27;;
10246;SDS011;5168;47.854;7.944;2023-05-02T14:52:21;3.83;;;3.43;;
10246;SDS011;5168;47.854;7.944;2023-05-02T14:54:47;3.50;;;3.20;;
10246;SDS011;5168;47.854;7.944;2023-05-02T14:57:12;4.33;;;3.87;;
10246;SDS011;5168;47.854;7.944;2023-05-02T14:59:39;3.43;;;3.13;;
10246;SDS011;5168;47.854;7.944;2023-05-02T15:02:05;3.37;;;3.07;;
10246;SDS011;5168;47.854;7.944;2023-05-02T15:04:31;4.90;;;3.80;;
10246;SDS011;5168;47.854;7.944;2023-05-02T15:06:58;4.63;;;4.23;;
10246;SDS011;5168;47.854;7.944;2023-05-02T15:09:24;6.77;;;3.70;;
10246;SDS011;5168;47.854;7.944;2023-05-02T15:11:51;3.93;;;3.53;;
10246;SDS011;5168;47.854;7.944;2023-05-02T15:14:17;4.00;;;3.47;;
10246;SDS011;5168;47.854;7.944;2023-05-02T15:16:42;3.87;;;3.57;;
10246;SDS011;5168;47.854;7.944;2023-05-02T15:19:08;4.93;;;4.43;;
10246;SDS011;5168;47.854;7.944;2023-05-02T15:21:34;3.93;;;3.53;;
10246;SDS011;5168;47.854;7.944;2023-05-02T15:24:00;4.53;;;4.10;;
10246;SDS011;5168;47.854;7.944;2023-05-02T15:26:26;4.07;;;3.63;;
10246;SDS011;5168;47.854;7.944;2023-05-02T15:28:52;4.63;;;3.47;;
10246;SDS011;5168;47.854;7.944;2023-05-02T15:31:18;3.93;;;3.53;;